Learmonth, Australia
Current Conditions -  °F | °C
As of 4:30 PM on Thursday 23 Oct 2014 (Local Time) from YPLM Reporting Station
Clear Clear  
Wind Chill: 84°   Ceiling: Unl
Heat Index: 84°   Visibility: 6mi
Dew Point: 50°   Wind: 18mph
Humidity: 30%   Direction: 220°SW
Pressure: 29.88"   Gusts: NA
Location:  22.23°S, 114.09°E
Report Text: YPLM 230830Z AUTO 22016KT 9999 // NCD 29/10 Q1012
Loading
Personal Weather Stations






























Interactive Weather Map
Tropical Storm Tracking
New forecast layout! Learn more

10-Day Weather Forecast

Advertisements
Track Severe Weather on mobile